Time;durP1;ratioP1;P1;durP2;ratioP2;P2;SDS_P1;SDS_P2;PMS_P1;PMS_P2;Temp;Humidity;BMP_temperature;BMP_pressure;BME280_temperature;BME280_humidity;BME280_pressure;Samples;Min_cycle;Max_cycle;Signal;HPM_P1;HPM_P2
2023/03/19 00:00:36;;;;;;;;;;;;;;;-145.06;100.00;53770.88;10460854;28;19920;-82
2023/03/19 00:05:36;;;;;;;;;;;;;;;-145.06;100.00;53762.78;10438568;28;19921;-82
2023/03/19 00:10:37;;;;;;;;;;;;;;;-145.06;100.00;53730.38;10440573;28;19912;-84
2023/03/19 00:15:37;;;;;;;;;;;;;;;-145.06;100.00;53760.75;10442419;28;19917;-82
2023/03/19 00:20:38;;;;;;;;;;;;;;;-145.06;100.00;53750.63;10463844;28;19935;-82
2023/03/19 00:25:38;;;;;;;;;;;;;;;-145.06;100.00;53809.34;10476418;22;20015;-82
2023/03/19 00:30:38;;;;;;;;;;;;;;;-145.06;100.00;53760.75;10472631;28;20314;-81
2023/03/19 00:35:39;;;;;;;;;;;;;;;-145.06;100.00;53766.81;10462108;28;19940;-81
2023/03/19 00:40:40;;;;;;;;;;;;;;;-145.06;100.00;53799.22;10478762;28;19917;-81
2023/03/19 00:45:40;;;;;;;;;;;;;;;-145.06;100.00;53785.06;10475783;28;20006;-81
2023/03/19 00:50:40;;;;;;;;;;;;;;;-145.06;100.00;53772.91;10471166;28;20418;-81
2023/03/19 00:55:41;;;;;;;;;;;;;;;-145.06;100.00;53762.78;10476208;28;19923;-81
2023/03/19 01:00:41;;;;;;;;;;;;;;;-145.06;100.00;53738.47;10500224;28;19923;-81
2023/03/19 01:05:41;;;;;;;;;;;;;;;-145.06;100.00;53770.88;10502703;28;19920;-81
2023/03/19 01:10:42;;;;;;;;;;;;;;;-145.06;100.00;53793.16;10487750;28;19940;-81
2023/03/19 01:15:42;;;;;;;;;;;;;;;-145.06;100.00;53728.34;10478926;28;19923;-81
2023/03/19 01:20:43;;;;;;;;;;;;;;;-145.06;100.00;53774.94;10484205;28;19917;-81
2023/03/19 01:25:43;;;;;;;;;;;;;;;-145.06;100.00;53789.09;10454876;28;19928;-81
2023/03/19 01:30:43;;;;;;;;;;;;;;;-145.06;100.00;53744.56;10457341;28;20459;-81
2023/03/19 01:35:44;;;;;;;;;;;;;;;-145.06;100.00;53795.19;10463080;28;19917;-81
2023/03/19 01:40:46;;;;;;;;;;;;;;;-145.06;100.00;53728.34;10467859;28;19917;-81
2023/03/19 01:45:46;;;;;;;;;;;;;;;-145.06;100.00;53772.91;10470500;28;20318;-81
2023/03/19 01:50:49;;;;;;;;;;;;;;;-145.06;100.00;53762.78;10469422;28;19971;-81
2023/03/19 01:55:49;;;;;;;;;;;;;;;-145.06;100.00;53740.50;10493791;28;19916;-81
2023/03/19 02:00:50;;;;;;;;;;;;;;;-145.06;100.00;53764.81;10464001;28;20378;-81
2023/03/19 02:05:51;;;;;;;;;;;;;;;-145.06;100.00;53772.91;10474398;28;19921;-81
2023/03/19 02:10:52;;;;;;;;;;;;;;;-145.06;100.00;53774.94;10501431;28;19917;-81
2023/03/19 02:15:53;;;;;;;;;;;;;;;-145.06;100.00;53770.88;10471382;28;19916;-81
2023/03/19 02:20:59;;;;;;;;;;;;;;;-145.06;100.00;53785.06;10482553;28;19916;-81
2023/03/19 02:26:08;;;;;;;;;;;;;;;-145.06;100.00;53789.09;10491262;28;19925;-82
2023/03/19 02:31:09;;;;;;;;;;;;;;;-145.06;100.00;53774.94;10499263;28;20015;-82
2023/03/19 02:36:11;;;;;;;;;;;;;;;-145.06;100.00;53770.88;10464079;28;19920;-82
2023/03/19 02:41:11;;;;;;;;;;;;;;;-145.06;100.00;53764.81;10485387;28;19917;-82
2023/03/19 02:46:12;;;;;;;;;;;;;;;-145.06;100.00;53787.06;10492147;28;19927;-82
2023/03/19 02:51:12;;;;;;;;;;;;;;;-145.06;100.00;53758.72;10491736;28;19912;-81
2023/03/19 02:56:12;;;;;;;;;;;;;;;-145.06;100.00;53742.53;10477030;28;19917;-80
2023/03/19 03:01:13;;;;;;;;;;;;;;;-145.06;100.00;53746.56;10484569;28;19920;-81
2023/03/19 03:06:13;;;;;;;;;;;;;;;-145.06;100.00;53823.53;10482277;28;19930;-82
2023/03/19 03:11:13;;;;;;;;;;;;;;;-145.06;100.00;53805.31;10465515;28;19917;-81
2023/03/19 03:16:14;;;;;;;;;;;;;;;-145.06;100.00;53783.03;10477856;28;20253;-80
2023/03/19 03:21:18;;;;;;;;;;;;;;;-145.06;100.00;53746.56;10476734;28;20341;-80
2023/03/19 03:26:19;;;;;;;;;;;;;;;-145.06;100.00;53799.22;10482990;28;19925;-80
2023/03/19 03:31:20;;;;;;;;;;;;;;;-145.06;100.00;53781.00;10484499;28;20360;-80
2023/03/19 03:36:20;;;;;;;;;;;;;;;-145.06;100.00;53772.91;10477160;28;19948;-80
2023/03/19 03:41:20;;;;;;;;;;;;;;;-145.06;100.00;53795.19;10468052;28;19945;-80
2023/03/19 03:46:21;;;;;;;;;;;;;;;-145.06;100.00;53787.06;10472758;28;19921;-81
2023/03/19 03:51:21;;;;;;;;;;;;;;;-145.06;100.00;53772.91;10468129;28;20368;-81
2023/03/19 03:56:21;;;;;;;;;;;;;;;-145.06;100.00;53760.75;10470218;28;19916;-81
2023/03/19 04:01:21;;;;;;;;;;;;;;;-145.06;100.00;53791.13;10473743;28;19983;-81
2023/03/19 04:06:23;;;;;;;;;;;;;;;-145.06;100.00;53778.97;10482968;28;19992;-80
2023/03/19 04:11:23;;;;;;;;;;;;;;;-145.06;100.00;53803.28;10498441;28;19924;-81
2023/03/19 04:16:23;;;;;;;;;;;;;;;-145.06;100.00;53768.84;10474658;28;19916;-82
2023/03/19 04:21:24;;;;;;;;;;;;;;;-145.06;100.00;53815.44;10483683;28;19959;-82
2023/03/19 04:26:25;;;;;;;;;;;;;;;-145.06;100.00;53793.16;10488592;28;19936;-82
2023/03/19 04:31:25;;;;;;;;;;;;;;;-145.06;100.00;53770.88;10491301;28;20459;-81
2023/03/19 04:36:25;;;;;;;;;;;;;;;-145.06;100.00;53776.94;10468919;28;19944;-82
2023/03/19 04:41:26;;;;;;;;;;;;;;;-145.06;100.00;53774.94;10486434;28;19985;-81
2023/03/19 04:46:26;;;;;;;;;;;;;;;-145.06;100.00;53778.97;10477459;28;19924;-81
2023/03/19 04:51:26;;;;;;;;;;;;;;;-145.06;100.00;53778.97;10504399;28;19928;-82
2023/03/19 04:56:27;;;;;;;;;;;;;;;-145.06;100.00;53736.44;10481389;28;20452;-82
2023/03/19 05:01:27;;;;;;;;;;;;;;;-145.06;100.00;53770.88;10467631;28;19919;-81
2023/03/19 05:06:27;;;;;;;;;;;;;;;-145.06;100.00;53813.41;10470152;28;19933;-81
2023/03/19 05:11:27;;;;;;;;;;;;;;;-145.06;100.00;53738.47;10505902;28;19919;-81
2023/03/19 05:16:28;;;;;;;;;;;;;;;-145.06;100.00;53789.09;10485745;28;20279;-81
2023/03/19 05:21:28;;;;;;;;;;;;;;;-145.06;100.00;53774.94;10473916;28;19923;-81
2023/03/19 05:26:28;;;;;;;;;;;;;;;-145.06;100.00;53815.44;10486674;28;19921;-81
2023/03/19 05:31:28;;;;;;;;;;;;;;;-145.06;100.00;53795.19;10464465;28;19959;-81
2023/03/19 05:36:29;;;;;;;;;;;;;;;-145.06;100.00;53783.03;10486964;28;19917;-81
2023/03/19 05:41:29;;;;;;;;;;;;;;;-145.06;100.00;53770.88;10484322;28;20418;-81
2023/03/19 05:46:30;;;;;;;;;;;;;;;-145.06;100.00;53807.31;10470056;28;19924;-81
2023/03/19 05:51:30;;;;;;;;;;;;;;;-145.06;100.00;53795.19;10482596;28;19919;-81
2023/03/19 05:56:30;;;;;;;;;;;;;;;-145.06;100.00;53797.22;10494415;28;20536;-81
2023/03/19 06:01:31;;;;;;;;;;;;;;;-145.06;100.00;53778.97;10475822;28;19999;-81
2023/03/19 06:06:31;;;;;;;;;;;;;;;-145.06;100.00;53785.06;10474227;28;19916;-81
2023/03/19 06:11:31;;;;;;;;;;;;;;;-145.06;100.00;53768.84;10493182;28;19979;-81
2023/03/19 06:16:31;;;;;;;;;;;;;;;-145.06;100.00;53791.13;10482097;28;19919;-81
2023/03/19 06:21:32;;;;;;;;;;;;;;;-145.06;100.00;53797.22;10478966;28;20006;-81
2023/03/19 06:26:32;;;;;;;;;;;;;;;-145.06;100.00;53781.00;10474821;28;19942;-81
2023/03/19 06:31:32;;;;;;;;;;;;;;;-145.06;100.00;53815.44;10469095;28;19993;-81
2023/03/19 06:36:32;;;;;;;;;;;;;;;-145.06;100.00;53843.78;10492803;22;19931;-85
2023/03/19 06:41:32;;;;;;;;;;;;;;;-145.06;100.00;53783.03;10463610;28;19963;-84
2023/03/19 06:46:33;;;;;;;;;;;;;;;-145.06;100.00;53770.88;10478581;28;19952;-84
2023/03/19 06:51:33;;;;;;;;;;;;;;;-145.06;100.00;53783.03;10459635;28;19973;-84
2023/03/19 06:56:33;;;;;;;;;;;;;;;-145.06;100.00;53799.22;10460535;28;20011;-85
2023/03/19 07:01:33;;;;;;;;;;;;;;;-145.06;100.00;53815.44;10467168;28;19924;-85
2023/03/19 07:06:34;;;;;;;;;;;;;;;-145.06;100.00;53772.91;10455710;28;19921;-84
2023/03/19 07:11:34;;;;;;;;;;;;;;;-145.06;100.00;53787.06;10472416;28;19924;-84
2023/03/19 07:16:34;;;;;;;;;;;;;;;-145.06;100.00;53764.81;10466343;28;19927;-84
2023/03/19 07:21:35;;;;;;;;;;;;;;;-145.06;100.00;53776.94;10450610;28;19921;-85
2023/03/19 07:26:35;;;;;;;;;;;;;;;-145.06;100.00;53778.97;10463883;28;19920;-84
2023/03/19 07:31:35;;;;;;;;;;;;;;;-145.06;100.00;53756.69;10457034;28;19927;-83
2023/03/19 07:36:36;;;;;;;;;;;;;;;-145.06;100.00;53781.00;10469220;28;19959;-83
2023/03/19 07:41:36;;;;;;;;;;;;;;;-145.06;100.00;53754.69;10451220;28;19913;-84
2023/03/19 07:46:36;;;;;;;;;;;;;;;-145.06;100.00;53629.13;10465388;28;20367;-85
2023/03/19 07:51:36;;;;;;;;;;;;;;;-145.06;100.00;53566.34;10466920;28;19928;-85
2023/03/19 07:56:37;;;;;;;;;;;;;;;-145.06;100.00;53704.06;10463597;28;19912;-83
2023/03/19 08:01:37;;;;;;;;;;;;;;;-145.06;100.00;53683.81;10451015;28;20330;-84
2023/03/19 08:06:37;;;;;;;;;;;;;;;-145.06;100.00;53710.13;10476414;28;19923;-84
2023/03/19 08:11:37;;;;;;;;;;;;;;;-145.06;100.00;53726.31;10444680;28;20403;-83
2023/03/19 08:16:37;;;;;;;;;;;;;;;-145.06;100.00;53693.94;10448122;28;19913;-83
2023/03/19 08:21:38;;;;;;;;;;;;;;;-145.06;100.00;53695.94;10446535;28;19919;-83
2023/03/19 08:26:38;;;;;;;;;;;;;;;-145.06;100.00;53732.41;10442533;28;20363;-83
2023/03/19 08:31:38;;;;;;;;;;;;;;;-145.06;100.00;53740.50;10462152;28;19920;-83
2023/03/19 08:36:38;;;;;;;;;;;;;;;-145.06;100.00;53683.81;10441464;28;19999;-83
2023/03/19 08:41:39;;;;;;;;;;;;;;;-145.06;100.00;53697.97;10459791;28;20390;-84
2023/03/19 08:46:39;;;;;;;;;;;;;;;-145.06;100.00;53673.69;10440546;28;20057;-83
2023/03/19 08:51:39;;;;;;;;;;;;;;;-145.06;100.00;53673.69;10461224;28;20421;-82
2023/03/19 08:56:39;;;;;;;;;;;;;;;-145.06;100.00;53619.00;10471644;28;19945;-83
2023/03/19 09:01:40;;;;;;;;;;;;;;;-145.06;100.00;53578.50;10456113;28;19916;-82
2023/03/19 09:06:40;;;;;;;;;;;;;;;-145.06;100.00;53619.00;10473927;28;19921;-82
2023/03/19 09:11:41;;;;;;;;;;;;;;;-145.06;100.00;53667.59;10448142;28;19924;-82
2023/03/19 09:16:41;;;;;;;;;;;;;;;-145.06;100.00;53661.53;10465855;28;19948;-86
2023/03/19 09:21:42;;;;;;;;;;;;;;;-145.06;100.00;53675.69;10465382;28;19920;-85
2023/03/19 09:26:42;;;;;;;;;;;;;;;-145.06;100.00;53706.06;10467502;28;19917;-83
2023/03/19 09:31:42;;;;;;;;;;;;;;;-145.06;100.00;53673.69;10483309;28;19948;-83
2023/03/19 09:36:42;;;;;;;;;;;;;;;-145.06;100.00;53655.44;10460309;28;19923;-83
2023/03/19 09:41:58;;;;;;;;;;;;;;;-145.06;100.00;53691.91;10447786;28;20356;-83
2023/03/19 09:47:08;;;;;;;;;;;;;;;-145.06;100.00;53677.72;10464356;28;19916;-83
2023/03/19 09:52:14;;;;;;;;;;;;;;;-145.06;100.00;53695.94;10472943;28;20036;-83
2023/03/19 09:57:16;;;;;;;;;;;;;;;-145.06;100.00;53697.97;10470806;28;19920;-83
2023/03/19 10:02:16;;;;;;;;;;;;;;;-145.06;100.00;53693.94;10463469;28;19912;-82
2023/03/19 10:07:35;;;;;;;;;;;;;;;-145.06;100.00;53704.06;10463106;28;20376;-83
2023/03/19 10:12:53;;;;;;;;;;;;;;;-145.06;100.00;53673.69;10444566;28;19913;-83
2023/03/19 10:18:10;;;;;;;;;;;;;;;-145.06;100.00;53697.97;10487194;28;20382;-83
2023/03/19 10:23:10;;;;;;;;;;;;;;;-145.06;100.00;53691.91;10445664;28;19932;-82
2023/03/19 10:28:15;;;;;;;;;;;;;;;-145.06;100.00;53665.56;10445061;28;19936;-83
2023/03/19 10:33:33;;;;;;;;;;;;;;;-145.06;100.00;53683.81;10462567;28;20006;-82
2023/03/19 10:38:38;;;;;;;;;;;;;;;-145.06;100.00;53649.38;10464141;28;20346;-83
2023/03/19 10:43:39;;;;;;;;;;;;;;;-145.06;100.00;53689.88;10463719;28;19913;-84
2023/03/19 10:48:42;;;;;;;;;;;;;;;-145.06;100.00;53704.06;10462876;28;19928;-82
2023/03/19 10:53:42;;;;;;;;;;;;;;;-145.06;100.00;53687.84;10445959;28;19939;-84
2023/03/19 10:58:54;;;;;;;;;;;;;;;-145.06;100.00;53657.47;10446789;28;19913;-84
2023/03/19 11:03:56;;;;;;;;;;;;;;;-145.06;100.00;53661.53;10458262;28;19964;-82
2023/03/19 11:08:56;;;;;;;;;;;;;;;-145.06;100.00;53655.44;10468528;28;19913;-82
2023/03/19 11:13:56;;;;;;;;;;;;;;;-145.06;100.00;53675.69;10450016;28;19920;-82
2023/03/19 11:18:56;;;;;;;;;;;;;;;-145.06;100.00;53665.56;10467128;28;20273;-84
2023/03/19 11:24:02;;;;;;;;;;;;;;;-145.06;100.00;53671.66;10474303;28;19927;-84
2023/03/19 11:29:03;;;;;;;;;;;;;;;-145.06;100.00;53663.56;10456518;28;19920;-82
2023/03/19 11:34:12;;;;;;;;;;;;;;;-145.06;100.00;53691.91;10451449;28;19994;-82
2023/03/19 11:39:13;;;;;;;;;;;;;;;-145.06;100.00;53673.69;10467330;28;20009;-83
2023/03/19 11:44:18;;;;;;;;;;;;;;;-145.06;100.00;53661.53;10470986;28;20119;-83
2023/03/19 11:49:26;;;;;;;;;;;;;;;-145.06;100.00;53685.81;10457655;28;20276;-82
2023/03/19 11:54:51;;;;;;;;;;;;;;;-145.06;100.00;53663.56;10452506;28;19913;-83
2023/03/19 12:00:02;;;;;;;;;;;;;;;-145.06;100.00;53681.78;10454185;28;19986;-83
2023/03/19 12:05:12;;;;;;;;;;;;;;;-145.06;100.00;53700.00;10457018;28;20373;-83
2023/03/19 12:10:24;;;;;;;;;;;;;;;-145.06;100.00;53667.59;10473237;28;19919;-82
2023/03/19 12:15:29;;;;;;;;;;;;;;;-145.06;100.00;53645.31;10445125;28;19917;-83
2023/03/19 12:20:33;;;;;;;;;;;;;;;-145.06;100.00;53661.53;10457007;28;20386;-83
2023/03/19 12:25:40;;;;;;;;;;;;;;;-145.06;100.00;53627.09;10468376;28;19925;-83
2023/03/19 12:30:43;;;;;;;;;;;;;;;-145.06;100.00;53645.31;10445324;28;19974;-83
2023/03/19 12:35:46;;;;;;;;;;;;;;;-145.06;100.00;53685.81;10481873;22;20291;-82
2023/03/19 12:40:50;;;;;;;;;;;;;;;-145.06;100.00;53667.59;10473782;28;20290;-80
2023/03/19 12:45:55;;;;;;;;;;;;;;;-145.06;100.00;53685.81;10433708;28;20223;-81
2023/03/19 12:50:58;;;;;;;;;;;;;;;-145.06;100.00;53681.78;10440146;28;19917;-82
2023/03/19 12:56:03;;;;;;;;;;;;;;;-145.06;100.00;53663.56;10410033;28;19917;-81
2023/03/19 13:01:15;;;;;;;;;;;;;;;-145.06;100.00;53689.88;10446179;28;19920;-83
2023/03/19 13:06:16;;;;;;;;;;;;;;;-145.06;100.00;53679.75;10443503;28;20169;-83
2023/03/19 13:11:20;;;;;;;;;;;;;;;-145.06;100.00;53689.88;10433359;28;19956;-80
2023/03/19 13:16:37;;;;;;;;;;;;;;;-145.06;100.00;53691.91;10423483;28;19920;-83
2023/03/19 13:21:38;;;;;;;;;;;;;;;-145.06;100.00;53665.56;10432520;28;20020;-83
2023/03/19 13:26:39;;;;;;;;;;;;;;;-145.06;100.00;53675.69;10430979;28;19940;-82
2023/03/19 13:31:39;;;;;;;;;;;;;;;-145.06;100.00;53641.28;10435247;28;19923;-81
2023/03/19 13:36:39;;;;;;;;;;;;;;;-145.06;100.00;53645.31;10442897;28;19924;-80
2023/03/19 13:41:41;;;;;;;;;;;;;;;-145.06;100.00;53649.38;10452975;28;19921;-81
2023/03/19 13:46:43;;;;;;;;;;;;;;;-145.06;100.00;53677.72;10433920;28;20108;-83
2023/03/19 13:51:46;;;;;;;;;;;;;;;-145.06;100.00;53651.41;10426038;28;20376;-81
2023/03/19 13:57:00;;;;;;;;;;;;;;;-145.06;100.00;53635.19;10429391;28;19932;-82
2023/03/19 14:02:24;;;;;;;;;;;;;;;-145.06;100.00;53675.69;10434630;28;19920;-83
2023/03/19 14:07:28;;;;;;;;;;;;;;;-145.06;100.00;53677.72;10433987;28;20597;-83
2023/03/19 14:12:33;;;;;;;;;;;;;;;-145.06;100.00;53667.59;10430336;28;19919;-80
2023/03/19 14:17:36;;;;;;;;;;;;;;;-145.06;100.00;53663.56;10429509;28;19917;-81
2023/03/19 14:22:37;;;;;;;;;;;;;;;-145.06;100.00;53675.69;10439576;28;19924;-83
2023/03/19 14:27:42;;;;;;;;;;;;;;;-145.06;100.00;53677.72;10441930;28;20008;-83
2023/03/19 14:32:46;;;;;;;;;;;;;;;-145.06;100.00;53661.53;10419196;28;19946;-81
2023/03/19 14:37:48;;;;;;;;;;;;;;;-145.06;100.00;53702.03;10439562;28;19924;-80
2023/03/19 14:42:59;;;;;;;;;;;;;;;-145.06;100.00;53693.94;10445404;28;19917;-82
2023/03/19 14:48:06;;;;;;;;;;;;;;;-145.06;100.00;53645.31;10430706;28;19921;-82
2023/03/19 14:53:13;;;;;;;;;;;;;;;-145.06;100.00;53665.56;10446695;28;19991;-83
2023/03/19 14:58:14;;;;;;;;;;;;;;;-145.06;100.00;53663.56;10428468;28;20000;-82
2023/03/19 15:03:40;;;;;;;;;;;;;;;-145.06;100.00;53697.97;10432330;28;20012;-83
2023/03/19 15:08:41;;;;;;;;;;;;;;;-145.06;100.00;53663.56;10434014;28;20346;-81
2023/03/19 15:13:44;;;;;;;;;;;;;;;-145.06;100.00;53625.06;10420567;28;20043;-82
2023/03/19 15:18:44;;;;;;;;;;;;;;;-145.06;100.00;53702.03;10434791;28;19982;-83
2023/03/19 15:23:45;;;;;;;;;;;;;;;-145.06;100.00;53669.63;10409983;28;19964;-81
2023/03/19 15:28:47;;;;;;;;;;;;;;;-145.06;100.00;53704.06;10431653;28;19925;-82
2023/03/19 15:33:49;;;;;;;;;;;;;;;-145.06;100.00;53665.56;10432521;28;22555;-82
2023/03/19 15:38:53;;;;;;;;;;;;;;;-145.06;100.00;53661.53;10437107;28;19921;-83
2023/03/19 15:43:55;;;;;;;;;;;;;;;-145.06;100.00;53673.69;10409092;28;19916;-83
2023/03/19 15:48:58;;;;;;;;;;;;;;;-145.06;100.00;53673.69;10436579;28;19978;-83
2023/03/19 15:53:59;;;;;;;;;;;;;;;-145.06;100.00;53677.72;10434039;28;20444;-82
2023/03/19 15:58:59;;;;;;;;;;;;;;;-145.06;100.00;53669.63;10432399;28;19917;-83
2023/03/19 16:04:02;;;;;;;;;;;;;;;-145.06;100.00;53675.69;10436161;28;20398;-83
2023/03/19 16:09:13;;;;;;;;;;;;;;;-145.06;100.00;53673.69;10410931;28;19952;-81
2023/03/19 16:14:13;;;;;;;;;;;;;;;-145.06;100.00;53677.72;10444189;28;19920;-81
2023/03/19 16:19:43;;;;;;;;;;;;;;;-145.06;100.00;53706.06;10429101;28;20381;-83
2023/03/19 16:24:45;;;;;;;;;;;;;;;-145.06;100.00;53704.06;10424775;28;19960;-83
2023/03/19 16:29:55;;;;;;;;;;;;;;;-145.06;100.00;53702.03;10450434;28;19917;-83
2023/03/19 16:35:11;;;;;;;;;;;;;;;-145.06;100.00;53681.78;10447498;28;19948;-82
2023/03/19 16:40:11;;;;;;;;;;;;;;;-145.06;100.00;53720.25;10440266;28;20008;-82
2023/03/19 16:45:17;;;;;;;;;;;;;;;-145.06;100.00;53702.03;10441917;28;19988;-83
2023/03/19 16:50:19;;;;;;;;;;;;;;;-145.06;100.00;53734.44;10442376;28;19913;-81
2023/03/19 16:55:23;;;;;;;;;;;;;;;-145.06;100.00;53722.28;10429260;28;19913;-82
2023/03/19 17:00:24;;;;;;;;;;;;;;;-145.06;100.00;53687.84;10443470;28;19924;-81
2023/03/19 17:05:25;;;;;;;;;;;;;;;-145.06;100.00;53738.47;10442085;28;19918;-83
2023/03/19 17:10:27;;;;;;;;;;;;;;;-145.06;100.00;53730.38;10441829;28;20406;-81
2023/03/19 17:15:30;;;;;;;;;;;;;;;-145.06;100.00;53693.94;10428578;28;20094;-83
2023/03/19 17:20:32;;;;;;;;;;;;;;;-145.06;100.00;53700.00;10443597;28;19917;-81
2023/03/19 17:25:32;;;;;;;;;;;;;;;-145.06;100.00;53653.44;10414874;28;19956;-81
2023/03/19 17:30:32;;;;;;;;;;;;;;;-145.06;100.00;53708.09;10448093;28;20041;-82
2023/03/19 17:35:33;;;;;;;;;;;;;;;-145.06;100.00;53706.06;10435673;28;19917;-80
2023/03/19 17:40:33;;;;;;;;;;;;;;;-145.06;100.00;53714.19;10436788;28;19913;-81
2023/03/19 17:45:33;;;;;;;;;;;;;;;-145.06;100.00;53702.03;10436897;28;19917;-80
2023/03/19 17:50:33;;;;;;;;;;;;;;;-145.06;100.00;53730.38;10419843;28;19919;-80
2023/03/19 17:55:34;;;;;;;;;;;;;;;-145.06;100.00;53710.13;10434763;28;19913;-80
2023/03/19 18:00:34;;;;;;;;;;;;;;;-145.06;100.00;53708.09;10438120;28;19924;-81
2023/03/19 18:05:34;;;;;;;;;;;;;;;-145.06;100.00;53697.97;10431015;28;19920;-81
2023/03/19 18:10:34;;;;;;;;;;;;;;;-145.06;100.00;53740.50;10444398;28;20023;-81
2023/03/19 18:15:35;;;;;;;;;;;;;;;-145.06;100.00;53714.19;10433901;28;19920;-81
2023/03/19 18:20:37;;;;;;;;;;;;;;;-145.06;100.00;53724.31;10442072;28;19917;-82
2023/03/19 18:25:37;;;;;;;;;;;;;;;-145.06;100.00;53689.88;10437837;28;19970;-81
2023/03/19 18:30:39;;;;;;;;;;;;;;;-145.06;100.00;53756.69;10424842;28;19913;-80
2023/03/19 18:35:41;;;;;;;;;;;;;;;-145.06;100.00;53795.19;10451083;28;20410;-82
2023/03/19 18:40:41;;;;;;;;;;;;;;;-145.06;100.00;53746.56;10437121;28;19979;-83
2023/03/19 18:45:41;;;;;;;;;;;;;;;-145.06;100.00;53748.59;10446442;28;20391;-81
2023/03/19 18:50:42;;;;;;;;;;;;;;;-145.06;100.00;53778.97;10446746;28;20390;-83
2023/03/19 18:55:42;;;;;;;;;;;;;;;-145.06;100.00;53762.78;10453737;22;19959;-81
2023/03/19 19:00:43;;;;;;;;;;;;;;;-145.06;100.00;53716.19;10443298;28;19921;-83
2023/03/19 19:05:43;;;;;;;;;;;;;;;-145.06;100.00;53732.41;10451023;28;19974;-82
2023/03/19 19:10:54;;;;;;;;;;;;;;;-145.06;100.00;53738.47;10414812;28;19960;-81
2023/03/19 19:15:54;;;;;;;;;;;;;;;-145.06;100.00;53744.56;10419636;28;19923;-83
2023/03/19 19:20:56;;;;;;;;;;;;;;;-145.06;100.00;53768.84;10449139;28;19923;-84
2023/03/19 19:25:56;;;;;;;;;;;;;;;-145.06;100.00;53781.00;10426616;28;19928;-82
2023/03/19 19:30:57;;;;;;;;;;;;;;;-145.06;100.00;53750.63;10417000;28;20383;-83
2023/03/19 19:35:58;;;;;;;;;;;;;;;-145.06;100.00;53770.88;10421050;28;19917;-83
2023/03/19 19:40:59;;;;;;;;;;;;;;;-145.06;100.00;53774.94;10409044;28;19925;-83
2023/03/19 19:45:59;;;;;;;;;;;;;;;-145.06;100.00;53766.81;10409857;28;19949;-82
2023/03/19 19:50:59;;;;;;;;;;;;;;;-145.06;100.00;53754.69;10426022;28;19928;-81
2023/03/19 19:56:05;;;;;;;;;;;;;;;-145.06;100.00;53760.75;10420014;28;19960;-83
2023/03/19 20:01:12;;;;;;;;;;;;;;;-145.06;100.00;53778.97;10432052;28;19963;-81
2023/03/19 20:06:13;;;;;;;;;;;;;;;-145.06;100.00;53758.72;10418797;28;19921;-83
2023/03/19 20:11:18;;;;;;;;;;;;;;;-145.06;100.00;53768.84;10421678;28;20339;-83
2023/03/19 20:16:19;;;;;;;;;;;;;;;-145.06;100.00;53768.84;10429574;28;19913;-82
2023/03/19 20:21:21;;;;;;;;;;;;;;;-145.06;100.00;53776.94;10418129;28;19917;-83
2023/03/19 20:26:23;;;;;;;;;;;;;;;-145.06;100.00;53756.69;10422826;28;19924;-83
2023/03/19 20:31:28;;;;;;;;;;;;;;;-145.06;100.00;53795.19;10420129;28;19963;-82
2023/03/19 20:36:28;;;;;;;;;;;;;;;-145.06;100.00;53768.84;10439964;28;19916;-83
2023/03/19 20:41:28;;;;;;;;;;;;;;;-145.06;100.00;53750.63;10415181;28;19984;-83
2023/03/19 20:46:29;;;;;;;;;;;;;;;-145.06;100.00;53778.97;10413191;28;19975;-83
2023/03/19 20:51:30;;;;;;;;;;;;;;;-145.06;100.00;53760.75;10418611;28;19912;-83
2023/03/19 20:56:30;;;;;;;;;;;;;;;-145.06;100.00;53760.75;10416841;28;19917;-82
2023/03/19 21:01:31;;;;;;;;;;;;;;;-145.06;100.00;53778.97;10433141;28;19923;-83
2023/03/19 21:06:31;;;;;;;;;;;;;;;-145.06;100.00;53746.56;10443854;28;19918;-82
2023/03/19 21:11:39;;;;;;;;;;;;;;;-145.06;100.00;53758.72;10424928;28;19913;-83
2023/03/19 21:16:39;;;;;;;;;;;;;;;-145.06;100.00;53758.72;10443365;28;19925;-79
2023/03/19 21:21:41;;;;;;;;;;;;;;;-145.06;100.00;53770.88;10439527;28;19921;-82
2023/03/19 21:26:42;;;;;;;;;;;;;;;-145.06;100.00;53783.03;10420559;28;19971;-83
2023/03/19 21:31:43;;;;;;;;;;;;;;;-145.06;100.00;53783.03;10424914;28;19912;-83
2023/03/19 21:36:43;;;;;;;;;;;;;;;-145.06;100.00;53764.81;10422394;28;19948;-84
2023/03/19 21:41:45;;;;;;;;;;;;;;;-145.06;100.00;53783.03;10435419;28;19920;-83
2023/03/19 21:46:46;;;;;;;;;;;;;;;-145.06;100.00;53752.66;10437789;28;19917;-82
2023/03/19 21:51:46;;;;;;;;;;;;;;;-145.06;100.00;53793.16;10421313;28;19948;-84
2023/03/19 21:56:46;;;;;;;;;;;;;;;-145.06;100.00;53766.81;10415225;28;20412;-83
2023/03/19 22:01:47;;;;;;;;;;;;;;;-145.06;100.00;53758.72;10416308;28;19913;-84
2023/03/19 22:06:47;;;;;;;;;;;;;;;-145.06;100.00;53801.25;10446017;28;19917;-83
2023/03/19 22:11:48;;;;;;;;;;;;;;;-145.06;100.00;53778.97;10443674;28;20042;-83
2023/03/19 22:16:50;;;;;;;;;;;;;;;-145.06;100.00;53787.06;10436450;28;19975;-83
2023/03/19 22:21:50;;;;;;;;;;;;;;;-145.06;100.00;53758.72;10435045;28;20082;-83
2023/03/19 22:26:55;;;;;;;;;;;;;;;-145.06;100.00;53770.88;10439326;28;19957;-84
2023/03/19 22:31:55;;;;;;;;;;;;;;;-145.06;100.00;53766.81;10421038;28;19959;-83
2023/03/19 22:36:56;;;;;;;;;;;;;;;-145.06;100.00;53748.59;10427085;28;19913;-83
2023/03/19 22:41:56;;;;;;;;;;;;;;;-145.06;100.00;53760.75;10427580;28;19917;-83
2023/03/19 22:46:57;;;;;;;;;;;;;;;-145.06;100.00;53805.31;10432321;28;19926;-84
2023/03/19 22:51:57;;;;;;;;;;;;;;;-145.06;100.00;53738.47;10434497;28;19967;-81
2023/03/19 22:56:58;;;;;;;;;;;;;;;-145.06;100.00;53783.03;10426488;28;20354;-81
2023/03/19 23:01:58;;;;;;;;;;;;;;;-145.06;100.00;53787.06;10422972;28;19967;-82
2023/03/19 23:06:59;;;;;;;;;;;;;;;-145.06;100.00;53730.38;10429157;28;19930;-81
2023/03/19 23:12:01;;;;;;;;;;;;;;;-145.06;100.00;53799.22;10416029;28;19921;-81
2023/03/19 23:17:16;;;;;;;;;;;;;;;-145.06;100.00;53783.03;10436017;28;19917;-82
2023/03/19 23:22:16;;;;;;;;;;;;;;;-145.06;100.00;53785.06;10426449;28;19971;-82
2023/03/19 23:27:25;;;;;;;;;;;;;;;-145.06;100.00;53781.00;10406231;28;20006;-83
2023/03/19 23:32:25;;;;;;;;;;;;;;;-145.06;100.00;53797.22;10413035;28;19956;-82
2023/03/19 23:37:27;;;;;;;;;;;;;;;-145.06;100.00;53766.81;10421353;28;19913;-82
2023/03/19 23:42:28;;;;;;;;;;;;;;;-145.06;100.00;53783.03;10413441;28;19913;-83
2023/03/19 23:47:29;;;;;;;;;;;;;;;-145.06;100.00;53783.03;10412280;28;20312;-82
2023/03/19 23:52:29;;;;;;;;;;;;;;;-145.06;100.00;53789.09;10429603;28;19917;-83
2023/03/19 23:57:30;;;;;;;;;;;;;;;-145.06;100.00;53762.78;10418024;28;19928;-82
